createdAt,value
2018-09-02T00:02:35.195Z,111.40
2018-09-02T00:05:15.878Z,63.17
2018-09-02T00:07:56.158Z,96.40
2018-09-02T00:10:37.215Z,110.87
2018-09-02T00:13:16.091Z,144.57
2018-09-02T00:15:56.836Z,307.40
2018-09-02T00:18:37.450Z,766.83
2018-09-02T00:21:17.413Z,649.77
2018-09-02T00:23:56.914Z,687.73
2018-09-02T00:26:40.295Z,663.57
2018-09-02T00:29:20.217Z,906.43
2018-09-02T00:32:01.690Z,871.17
2018-09-02T00:34:40.871Z,834.87
2018-09-02T00:37:23.631Z,554.20
2018-09-02T00:40:05.408Z,361.07
2018-09-02T00:42:44.998Z,506.33
2018-09-02T00:45:26.256Z,689.97
2018-09-02T00:48:05.174Z,743.53
2018-09-02T00:50:46.172Z,540.23
2018-09-02T00:53:24.344Z,615.87
2018-09-02T00:56:06.308Z,787.80
2018-09-02T00:58:46.673Z,492.90
2018-09-02T01:01:29.053Z,368.60
2018-09-02T01:04:09.901Z,294.80
2018-09-02T01:06:48.174Z,225.30
2018-09-02T01:09:26.174Z,185.63
2018-09-02T01:12:06.354Z,344.83
2018-09-02T01:14:48.853Z,284.53
2018-09-02T01:17:28.912Z,457.63
2018-09-02T01:20:10.652Z,680.13
2018-09-02T01:22:51.093Z,783.40
2018-09-02T01:25:32.397Z,831.07
2018-09-02T01:28:13.477Z,641.80
2018-09-02T01:30:53.517Z,659.53
2018-09-02T01:33:36.690Z,685.10
2018-09-02T01:36:18.410Z,765.17
2018-09-02T01:39:00.253Z,837.77
2018-09-02T01:41:41.355Z,852.40
2018-09-02T01:44:19.676Z,671.93
2018-09-02T01:46:57.891Z,856.43
2018-09-02T01:49:36.968Z,755.63
2018-09-02T01:52:19.315Z,885.93
2018-09-02T02:34:01.898Z,828.43
2018-09-02T02:36:42.000Z,917.47
2018-09-02T02:39:23.771Z,954.17
2018-09-02T02:42:07.432Z,1001.37
2018-09-02T02:44:48.552Z,1135.70
2018-09-02T02:47:27.575Z,1154.87
2018-09-02T02:50:09.310Z,1125.77
2018-09-02T02:52:53.914Z,1155.83
2018-09-02T02:55:36.489Z,1167.90
2018-09-02T02:58:13.995Z,1150.23
2018-09-02T03:00:53.035Z,1181.97
2018-09-02T03:03:31.656Z,1144.67
2018-09-02T03:06:13.052Z,1136.27
2018-09-02T03:08:54.612Z,1101.60
2018-09-02T03:11:34.932Z,1080.53
2018-09-02T03:14:15.098Z,1036.83
2018-09-02T03:16:53.733Z,1057.30
2018-09-02T03:19:32.468Z,1044.07
2018-09-02T03:22:14.288Z,1029.67
2018-09-02T03:24:55.301Z,1029.67
2018-09-02T03:27:36.016Z,1082.83
2018-09-02T03:30:19.092Z,1038.37
2018-09-02T03:32:59.854Z,997.67
2018-09-02T03:35:39.816Z,1026.50
2018-09-02T03:38:18.478Z,1015.00
2018-09-02T03:40:56.534Z,1012.90
2018-09-02T03:43:35.589Z,970.23
2018-09-02T03:46:15.728Z,990.37
2018-09-02T03:48:57.755Z,796.90
2018-09-02T03:51:38.232Z,996.80
2018-09-02T03:54:22.670Z,1021.17
2018-09-02T03:57:00.610Z,992.60
2018-09-02T03:59:39.490Z,1068.03
2018-09-02T04:02:18.054Z,1154.13
2018-09-02T04:04:57.194Z,1183.43
2018-09-02T04:07:35.715Z,1220.83
2018-09-02T04:10:13.974Z,1236.57
2018-09-02T04:12:52.273Z,898.87
2018-09-02T04:15:30.654Z,1199.37
2018-09-02T04:18:09.814Z,1226.87
2018-09-02T04:20:48.032Z,1156.40
2018-09-02T04:23:27.610Z,842.17
2018-09-02T04:26:09.311Z,1220.80
2018-09-02T04:28:47.213Z,1004.60
2018-09-02T04:31:28.448Z,1132.77
2018-09-02T04:34:09.436Z,1068.67
2018-09-02T04:36:49.553Z,941.13
2018-09-02T04:39:28.978Z,1069.13
2018-09-02T04:42:08.828Z,814.47
2018-09-02T04:44:48.612Z,813.63
2018-09-02T04:47:28.012Z,676.30
2018-09-02T04:50:18.851Z,402.07
2018-09-02T04:52:58.459Z,1238.60
2018-09-02T04:55:38.258Z,1135.17
2018-09-02T04:58:17.572Z,792.33
2018-09-02T05:00:57.584Z,722.87
2018-09-02T05:03:35.640Z,460.47
2018-09-02T05:06:15.756Z,449.20
2018-09-02T05:08:55.733Z,307.27
2018-09-02T05:11:35.698Z,510.67
2018-09-02T05:14:14.919Z,463.93
2018-09-02T05:16:54.891Z,621.73
2018-09-02T05:19:37.842Z,429.40
2018-09-02T05:22:17.851Z,692.03
2018-09-02T05:24:58.213Z,455.93
2018-09-02T05:27:37.296Z,349.33
2018-09-02T05:30:18.816Z,813.70
2018-09-02T05:32:59.114Z,456.07
2018-09-02T05:35:39.042Z,191.83
2018-09-02T05:38:18.835Z,453.80
2018-09-02T05:41:02.084Z,303.27
2018-09-02T05:43:42.132Z,275.97
2018-09-02T05:46:22.417Z,410.77
2018-09-02T05:49:04.331Z,475.53
2018-09-02T05:51:43.479Z,353.80
2018-09-02T05:54:25.598Z,355.23
2018-09-02T05:57:05.590Z,348.00
2018-09-02T05:59:47.790Z,456.80
2018-09-02T06:02:28.717Z,438.70
2018-09-02T06:05:09.878Z,391.13
2018-09-02T06:07:47.899Z,543.07
2018-09-02T06:10:28.448Z,447.03
2018-09-02T06:13:09.395Z,521.50
2018-09-02T06:15:50.653Z,756.30
2018-09-02T06:18:31.394Z,760.87
2018-09-02T06:21:09.696Z,294.67
2018-09-02T06:23:50.077Z,339.47
2018-09-02T06:26:33.492Z,405.80
2018-09-02T06:29:19.971Z,426.57
2018-09-02T06:32:03.433Z,499.63
2018-09-02T06:34:42.498Z,362.53
2018-09-02T06:37:23.768Z,400.63
2018-09-02T06:40:03.937Z,494.33
2018-09-02T06:42:43.001Z,456.20
2018-09-02T06:45:25.837Z,523.67
2018-09-02T06:48:06.305Z,508.70
2018-09-02T06:50:48.116Z,435.50
2018-09-02T06:53:27.954Z,845.40
2018-09-02T06:56:05.352Z,701.90
2018-09-02T06:58:44.848Z,709.70
2018-09-02T07:01:26.312Z,612.47
2018-09-02T07:04:06.774Z,472.47
2018-09-02T07:06:47.119Z,569.87
2018-09-02T07:09:27.732Z,618.77
2018-09-02T07:12:07.612Z,620.67
2018-09-02T07:14:45.791Z,632.07
2018-09-02T07:17:26.055Z,906.07
2018-09-02T07:20:05.944Z,665.60
2018-09-02T07:22:47.313Z,697.80
2018-09-02T07:25:30.550Z,714.70
2018-09-02T07:28:11.354Z,475.70
2018-09-02T07:30:59.013Z,1141.13
2018-09-02T07:33:38.235Z,994.20
2018-09-02T07:36:21.251Z,628.63
2018-09-02T07:39:04.133Z,883.90
2018-09-02T07:41:47.516Z,772.70
2018-09-02T07:44:28.119Z,805.90
2018-09-02T07:47:09.850Z,769.30
2018-09-02T07:49:53.293Z,802.30
2018-09-02T07:52:38.616Z,664.60
2018-09-02T07:55:22.175Z,611.90
2018-09-02T07:58:02.232Z,981.63
2018-09-02T08:00:44.215Z,1101.80
2018-09-02T08:03:25.154Z,890.30
2018-09-02T08:06:08.078Z,609.03
2018-09-02T08:08:49.195Z,817.57
2018-09-02T08:11:31.354Z,983.53
2018-09-02T08:14:14.520Z,761.07
2018-09-02T08:16:54.454Z,766.40
2018-09-02T08:19:38.898Z,497.20
2018-09-02T08:22:16.934Z,384.10
2018-09-02T08:24:54.698Z,572.50
2018-09-02T08:27:34.614Z,415.30
2018-09-02T08:30:14.711Z,755.70
2018-09-02T08:32:58.701Z,581.57
2018-09-02T08:35:41.955Z,476.63
2018-09-02T08:38:21.879Z,700.93
2018-09-02T08:41:02.172Z,842.83
2018-09-02T08:43:42.606Z,840.30
2018-09-02T08:46:28.569Z,776.57
2018-09-02T08:49:09.459Z,773.87
2018-09-02T08:51:51.739Z,615.27
2018-09-02T08:54:31.312Z,703.53
2018-09-02T08:57:11.517Z,540.67
2018-09-02T08:59:55.100Z,648.30
2018-09-02T09:02:37.373Z,614.50
2018-09-02T09:05:17.860Z,898.20
2018-09-02T09:08:00.111Z,472.33
2018-09-02T09:10:42.415Z,487.20
2018-09-02T09:13:22.275Z,829.77
2018-09-02T09:16:04.569Z,967.00
2018-09-02T09:18:43.656Z,1119.37
2018-09-02T09:21:26.737Z,1131.27
2018-09-02T09:24:06.202Z,1026.03
2018-09-02T09:26:49.270Z,960.77
2018-09-02T09:29:28.776Z,1066.83
2018-09-02T09:32:09.137Z,1133.80
2018-09-02T09:34:52.658Z,1103.37
2018-09-02T09:37:34.312Z,1145.77
2018-09-02T09:40:15.055Z,1144.23
2018-09-02T09:42:58.132Z,1152.87
2018-09-02T09:45:36.490Z,1059.27
2018-09-02T09:48:19.078Z,937.10
2018-09-02T09:50:57.945Z,1141.57
2018-09-02T09:53:38.400Z,1053.47
2018-09-02T09:56:20.471Z,833.57
2018-09-02T09:58:57.271Z,1073.93
2018-09-02T10:01:35.380Z,1028.27
2018-09-02T10:04:15.917Z,881.97
2018-09-02T10:06:55.139Z,1071.90
2018-09-02T10:09:35.693Z,967.10
2018-09-02T10:12:15.693Z,897.87
2018-09-02T10:14:57.891Z,493.60
2018-09-02T10:17:38.116Z,646.40
2018-09-02T10:20:16.360Z,1108.67
2018-09-02T10:22:55.793Z,872.83
2018-09-02T10:25:36.637Z,777.07
2018-09-02T10:28:17.291Z,696.27
2018-09-02T10:30:56.833Z,622.17
2018-09-02T10:33:38.994Z,698.50
2018-09-02T10:36:20.174Z,1123.77
2018-09-02T10:38:59.771Z,1065.50
2018-09-02T10:41:41.598Z,914.50
2018-09-02T10:44:23.462Z,578.13
2018-09-02T10:47:07.917Z,577.07
2018-09-02T10:49:49.014Z,1019.67
2018-09-02T10:52:31.334Z,1088.43
2018-09-02T10:55:13.094Z,681.50
2018-09-02T10:57:51.480Z,452.07
2018-09-02T11:00:30.131Z,1030.83
2018-09-02T11:03:13.556Z,1210.23
2018-09-02T11:05:55.334Z,1060.23
2018-09-02T11:08:35.179Z,799.67
2018-09-02T11:11:19.193Z,999.07
2018-09-02T11:13:59.506Z,547.83
2018-09-02T11:16:43.442Z,509.63
2018-09-02T11:19:25.053Z,1203.07
2018-09-02T11:22:03.274Z,924.17
2018-09-02T11:24:43.503Z,1132.10
2018-09-02T11:27:25.355Z,408.17
2018-09-02T11:30:05.166Z,1140.97
2018-09-02T11:32:43.450Z,941.30
2018-09-02T11:35:25.618Z,667.37
2018-09-02T11:38:04.976Z,1185.03
2018-09-02T11:40:47.073Z,829.80
2018-09-02T11:43:26.536Z,1005.13
2018-09-02T11:46:11.623Z,735.93
2018-09-02T11:48:53.135Z,1187.80
2018-09-02T11:51:29.534Z,434.80
2018-09-02T11:54:08.734Z,750.60
2018-09-02T11:56:49.096Z,524.93
2018-09-02T11:59:30.492Z,1226.47
2018-09-02T12:02:13.512Z,1204.00
2018-09-02T12:04:56.181Z,1140.17
2018-09-02T12:07:36.275Z,711.17
2018-09-02T12:10:13.956Z,674.70
2018-09-02T12:12:51.376Z,451.13
2018-09-02T12:15:28.437Z,1051.10
2018-09-02T12:18:07.135Z,861.53
2018-09-02T12:20:46.753Z,995.03
2018-09-02T12:23:26.939Z,688.57
2018-09-02T12:26:05.792Z,775.47
2018-09-02T12:28:46.254Z,525.93
2018-09-02T12:31:24.112Z,1219.47
2018-09-02T12:34:05.412Z,923.43
2018-09-02T12:36:45.653Z,868.70
2018-09-02T12:39:26.712Z,927.23
2018-09-02T12:42:05.923Z,1206.70
2018-09-02T12:44:47.332Z,1166.97
2018-09-02T12:47:25.412Z,1136.00
2018-09-02T12:50:02.948Z,835.23
2018-09-02T12:52:42.214Z,497.93
2018-09-02T12:55:19.231Z,555.93
2018-09-02T12:57:59.379Z,461.07
2018-09-02T13:00:39.875Z,755.53
2018-09-02T13:03:20.453Z,834.23
2018-09-02T13:06:00.655Z,775.53
2018-09-02T13:08:39.157Z,475.73
2018-09-02T13:11:19.278Z,760.23
2018-09-02T13:13:58.480Z,288.63
2018-09-02T13:16:39.973Z,756.63
2018-09-02T13:19:18.709Z,323.93
2018-09-02T13:21:58.777Z,519.63
2018-09-02T13:24:43.499Z,320.83
2018-09-02T13:27:21.133Z,662.57
2018-09-02T13:30:00.756Z,437.17
2018-09-02T13:32:40.311Z,421.63
2018-09-02T13:35:21.246Z,238.27
2018-09-02T13:38:03.770Z,582.87
2018-09-02T13:40:41.158Z,259.90
2018-09-02T13:43:26.276Z,194.83
2018-09-02T13:46:06.762Z,543.20
2018-09-02T13:48:47.458Z,611.93
2018-09-02T13:51:25.438Z,765.63
2018-09-02T13:54:05.153Z,681.03
2018-09-02T13:56:45.335Z,710.13
2018-09-02T13:59:22.240Z,535.63
2018-09-02T14:02:02.215Z,724.10
2018-09-02T14:04:41.172Z,366.83
2018-09-02T14:07:19.473Z,755.77
2018-09-02T14:09:56.999Z,664.10
2018-09-02T14:12:36.779Z,364.73
2018-09-02T14:15:16.333Z,761.70
2018-09-02T14:17:57.456Z,632.13
2018-09-02T14:20:37.013Z,776.83
2018-09-02T14:23:17.273Z,443.37
2018-09-02T14:25:58.253Z,344.33
2018-09-02T14:28:37.603Z,316.50
2018-09-02T14:31:18.093Z,381.77
2018-09-02T14:33:57.633Z,328.33
2018-09-02T14:36:35.191Z,272.90
2018-09-02T14:39:24.915Z,390.93
2018-09-02T14:42:05.114Z,406.97
2018-09-02T14:44:46.275Z,420.97
2018-09-02T14:47:25.219Z,657.60
2018-09-02T14:50:03.542Z,550.20
2018-09-02T14:52:42.511Z,541.50
2018-09-02T14:55:21.717Z,256.90
2018-09-02T14:57:59.511Z,629.47
2018-09-02T15:00:39.658Z,341.33
2018-09-02T15:03:18.856Z,242.77
2018-09-02T15:05:58.295Z,681.20
2018-09-02T15:08:41.094Z,391.53
2018-09-02T15:11:20.060Z,354.83
2018-09-02T15:13:58.071Z,396.87
2018-09-02T15:16:37.914Z,469.00
2018-09-02T15:19:22.795Z,485.27
2018-09-02T15:22:04.254Z,657.60
2018-09-02T15:24:46.419Z,719.13
2018-09-02T15:27:25.835Z,795.10
2018-09-02T15:30:05.975Z,540.60
2018-09-02T15:32:46.839Z,546.80
2018-09-02T15:35:29.258Z,652.17
2018-09-02T15:38:13.238Z,744.07
2018-09-02T15:40:53.952Z,197.40
2018-09-02T15:43:35.750Z,323.10
2018-09-02T15:46:13.269Z,269.27
2018-09-02T15:48:53.500Z,762.17
2018-09-02T15:51:35.136Z,323.50
2018-09-02T15:54:13.495Z,453.47
2018-09-02T15:56:50.813Z,471.33
2018-09-02T15:59:31.331Z,383.60
2018-09-02T16:02:10.895Z,524.63
2018-09-02T16:04:54.017Z,417.10
2018-09-02T16:07:35.744Z,341.07
2018-09-02T16:10:15.972Z,410.43
2018-09-02T16:12:55.114Z,347.83
2018-09-02T16:15:34.273Z,321.80
2018-09-02T16:18:11.312Z,393.60
2018-09-02T16:20:54.173Z,500.87
2018-09-02T16:23:33.371Z,476.23
2018-09-02T16:26:11.112Z,368.07
2018-09-02T16:28:53.260Z,328.87
2018-09-02T17:45:58.499Z,702.73
2018-09-02T17:48:40.398Z,873.13
2018-09-02T17:51:24.920Z,543.47
2018-09-02T17:54:08.282Z,825.37
2018-09-02T17:56:50.663Z,932.83
2018-09-02T17:59:28.621Z,1050.97
2018-09-02T18:02:11.127Z,934.63
2018-09-02T18:04:51.318Z,1035.07
2018-09-02T18:07:36.861Z,858.60
2018-09-02T18:10:17.121Z,511.43
2018-09-02T18:12:59.360Z,696.80
2018-09-02T18:15:40.917Z,885.30
2018-09-02T18:18:24.583Z,910.43
2018-09-02T18:21:07.277Z,786.33
2018-09-02T18:23:50.703Z,610.90
2018-09-02T18:26:35.524Z,235.90
2018-09-02T18:29:22.094Z,789.70
2018-09-02T18:32:04.623Z,254.40
2018-09-02T18:34:46.101Z,361.40
2018-09-02T18:37:27.222Z,334.67
2018-09-02T18:40:10.364Z,496.23
2018-09-02T18:42:53.703Z,717.10
2018-09-02T18:45:34.202Z,616.47
2018-09-02T18:48:12.841Z,829.83
2018-09-02T18:50:55.606Z,777.90
2018-09-02T18:53:36.022Z,1002.77
2018-09-02T18:56:14.800Z,346.80
2018-09-02T18:58:56.340Z,233.90
2018-09-02T19:01:34.760Z,444.37
2018-09-02T19:04:15.778Z,309.03
2018-09-02T19:06:58.903Z,487.87
2018-09-02T19:09:47.067Z,403.63
2018-09-02T19:12:27.676Z,273.33
2018-09-02T19:15:13.063Z,286.50
2018-09-02T19:17:54.362Z,574.33
2018-09-02T19:20:34.660Z,681.57
2018-09-02T19:23:18.161Z,857.93
2018-09-02T19:25:59.957Z,1105.70
2018-09-02T19:28:39.437Z,995.97
2018-09-02T19:31:21.136Z,979.57
2018-09-02T19:33:59.478Z,1154.53
2018-09-02T19:36:38.569Z,931.10
2018-09-02T19:39:18.238Z,997.03
2018-09-02T19:41:58.820Z,1043.63
2018-09-02T19:44:38.558Z,985.37
2018-09-02T19:47:25.685Z,963.00
2018-09-02T19:50:10.344Z,1173.30
2018-09-02T19:52:52.645Z,1036.50
2018-09-02T19:55:35.802Z,157.53
2018-09-02T19:58:15.598Z,607.67
2018-09-02T20:01:04.925Z,881.80
2018-09-02T20:03:53.339Z,955.00
2018-09-02T20:06:42.359Z,1040.27
2018-09-02T20:09:30.667Z,532.73
2018-09-02T20:12:15.075Z,852.30
2018-09-02T20:14:53.217Z,1001.07
2018-09-02T20:17:35.324Z,921.80
2018-09-02T20:20:18.360Z,954.73
2018-09-02T20:22:59.847Z,841.97
2018-09-02T20:25:45.199Z,1068.47
2018-09-02T20:28:31.545Z,1073.67
2018-09-02T20:31:16.381Z,1074.30
2018-09-02T20:33:56.837Z,965.90
2018-09-02T20:36:40.999Z,870.30
2018-09-02T20:39:22.063Z,925.03
2018-09-02T20:42:02.816Z,882.53
2018-09-02T20:44:46.142Z,401.77
2018-09-02T20:47:28.440Z,99.80
2018-09-02T23:35:29.461Z,812.70
2018-09-02T23:38:13.321Z,861.03
2018-09-02T23:40:54.958Z,680.43
2018-09-02T23:43:36.960Z,266.50
2018-09-02T23:46:20.218Z,373.70
2018-09-02T23:49:07.398Z,252.97
2018-09-02T23:51:48.102Z,260.63
2018-09-02T23:54:30.324Z,511.53
2018-09-02T23:57:10.602Z,511.07
2018-09-02T23:59:52.556Z,378.63
